sensor_id;sensor_type;location;lat;lon;timestamp;temperature;humidity
12049;DHT22;6085;49.452;8.502;2023-03-24T00:00:04;12.70;99.90
12049;DHT22;6085;49.452;8.502;2023-03-24T00:04:12;12.70;99.90
12049;DHT22;6085;49.452;8.502;2023-03-24T00:08:15;12.90;99.90
12049;DHT22;6085;49.452;8.502;2023-03-24T00:12:17;13.10;99.90
12049;DHT22;6085;49.452;8.502;2023-03-24T00:16:19;13.20;99.90
12049;DHT22;6085;49.452;8.502;2023-03-24T00:20:23;13.30;99.90
12049;DHT22;6085;49.452;8.502;2023-03-24T00:24:26;13.40;99.90
12049;DHT22;6085;49.452;8.502;2023-03-24T00:28:28;13.40;99.90
12049;DHT22;6085;49.452;8.502;2023-03-24T00:32:31;13.40;99.90
12049;DHT22;6085;49.452;8.502;2023-03-24T00:36:35;13.40;99.90
12049;DHT22;6085;49.452;8.502;2023-03-24T00:40:43;13.40;99.90
12049;DHT22;6085;49.452;8.502;2023-03-24T00:44:45;13.30;99.90
12049;DHT22;6085;49.452;8.502;2023-03-24T00:48:47;13.10;99.90
12049;DHT22;6085;49.452;8.502;2023-03-24T00:52:52;12.90;99.90
12049;DHT22;6085;49.452;8.502;2023-03-24T00:56:54;12.80;99.90
12049;DHT22;6085;49.452;8.502;2023-03-24T01:00:57;12.80;99.90
12049;DHT22;6085;49.452;8.502;2023-03-24T01:05:00;12.80;99.90
12049;DHT22;6085;49.452;8.502;2023-03-24T01:09:05;12.70;99.90
12049;DHT22;6085;49.452;8.502;2023-03-24T01:13:07;12.80;99.90
12049;DHT22;6085;49.452;8.502;2023-03-24T01:17:09;12.90;99.90
12049;DHT22;6085;49.452;8.502;2023-03-24T01:21:12;13.00;99.90
12049;DHT22;6085;49.452;8.502;2023-03-24T01:25:16;13.10;99.90
12049;DHT22;6085;49.452;8.502;2023-03-24T01:29:18;13.10;99.90
12049;DHT22;6085;49.452;8.502;2023-03-24T01:33:21;13.10;99.90
12049;DHT22;6085;49.452;8.502;2023-03-24T01:37:23;13.00;99.90
12049;DHT22;6085;49.452;8.502;2023-03-24T01:41:31;12.90;99.90
12049;DHT22;6085;49.452;8.502;2023-03-24T01:45:54;12.90;99.90
12049;DHT22;6085;49.452;8.502;2023-03-24T01:49:59;13.00;99.90
12049;DHT22;6085;49.452;8.502;2023-03-24T01:54:07;13.20;99.90
12049;DHT22;6085;49.452;8.502;2023-03-24T01:58:11;13.30;99.90
12049;DHT22;6085;49.452;8.502;2023-03-24T02:02:15;13.40;99.90
12049;DHT22;6085;49.452;8.502;2023-03-24T02:06:18;13.40;99.90
12049;DHT22;6085;49.452;8.502;2023-03-24T02:10:22;13.40;99.90
12049;DHT22;6085;49.452;8.502;2023-03-24T02:14:26;13.40;99.90
12049;DHT22;6085;49.452;8.502;2023-03-24T02:18:35;13.40;99.90
12049;DHT22;6085;49.452;8.502;2023-03-24T02:23:08;13.40;99.90
12049;DHT22;6085;49.452;8.502;2023-03-24T02:27:36;13.50;99.90
12049;DHT22;6085;49.452;8.502;2023-03-24T02:31:56;13.50;99.90
12049;DHT22;6085;49.452;8.502;2023-03-24T02:36:32;13.50;99.90
12049;DHT22;6085;49.452;8.502;2023-03-24T02:40:44;13.50;99.90
12049;DHT22;6085;49.452;8.502;2023-03-24T02:44:53;13.60;99.90
12049;DHT22;6085;49.452;8.502;2023-03-24T02:49:06;13.70;99.90
12049;DHT22;6085;49.452;8.502;2023-03-24T02:53:14;13.80;99.90
12049;DHT22;6085;49.452;8.502;2023-03-24T02:57:23;13.90;99.90
12049;DHT22;6085;49.452;8.502;2023-03-24T03:01:33;13.90;99.90
12049;DHT22;6085;49.452;8.502;2023-03-24T03:05:43;13.90;99.90
12049;DHT22;6085;49.452;8.502;2023-03-24T03:09:50;13.90;99.90
12049;DHT22;6085;49.452;8.502;2023-03-24T03:13:58;13.90;99.90
12049;DHT22;6085;49.452;8.502;2023-03-24T03:18:07;13.80;99.90
12049;DHT22;6085;49.452;8.502;2023-03-24T03:22:15;13.70;99.90
12049;DHT22;6085;49.452;8.502;2023-03-24T03:26:20;13.70;99.90
12049;DHT22;6085;49.452;8.502;2023-03-24T03:30:28;13.80;99.90
12049;DHT22;6085;49.452;8.502;2023-03-24T03:34:38;13.80;99.90
12049;DHT22;6085;49.452;8.502;2023-03-24T03:38:46;13.90;99.90
12049;DHT22;6085;49.452;8.502;2023-03-24T03:42:50;13.90;99.90
12049;DHT22;6085;49.452;8.502;2023-03-24T03:46:54;14.00;99.90
12049;DHT22;6085;49.452;8.502;2023-03-24T03:50:56;14.10;99.90
12049;DHT22;6085;49.452;8.502;2023-03-24T03:54:59;14.30;99.90
12049;DHT22;6085;49.452;8.502;2023-03-24T03:59:03;14.30;99.90
12049;DHT22;6085;49.452;8.502;2023-03-24T04:03:28;14.40;99.90
12049;DHT22;6085;49.452;8.502;2023-03-24T04:07:38;14.40;99.90
12049;DHT22;6085;49.452;8.502;2023-03-24T04:11:51;14.50;99.90
12049;DHT22;6085;49.452;8.502;2023-03-24T04:16:04;14.50;99.90
12049;DHT22;6085;49.452;8.502;2023-03-24T04:20:13;14.40;99.90
12049;DHT22;6085;49.452;8.502;2023-03-24T04:24:29;14.50;99.90
12049;DHT22;6085;49.452;8.502;2023-03-24T04:28:38;14.60;99.90
12049;DHT22;6085;49.452;8.502;2023-03-24T04:32:46;14.60;99.90
12049;DHT22;6085;49.452;8.502;2023-03-24T04:36:52;14.60;99.90
12049;DHT22;6085;49.452;8.502;2023-03-24T04:40:55;14.60;99.90
12049;DHT22;6085;49.452;8.502;2023-03-24T04:44:59;14.60;99.90
12049;DHT22;6085;49.452;8.502;2023-03-24T04:49:03;14.60;99.90
12049;DHT22;6085;49.452;8.502;2023-03-24T04:53:08;14.60;99.90
12049;DHT22;6085;49.452;8.502;2023-03-24T04:57:10;14.60;99.90
12049;DHT22;6085;49.452;8.502;2023-03-24T05:01:12;14.40;99.90
12049;DHT22;6085;49.452;8.502;2023-03-24T05:05:16;14.30;99.90
12049;DHT22;6085;49.452;8.502;2023-03-24T05:09:22;14.00;99.90
12049;DHT22;6085;49.452;8.502;2023-03-24T05:13:24;13.80;99.90
12049;DHT22;6085;49.452;8.502;2023-03-24T05:17:26;13.70;99.90
12049;DHT22;6085;49.452;8.502;2023-03-24T05:21:29;13.50;99.90
12049;DHT22;6085;49.452;8.502;2023-03-24T05:25:32;13.20;99.90
12049;DHT22;6085;49.452;8.502;2023-03-24T05:29:35;13.10;99.90
12049;DHT22;6085;49.452;8.502;2023-03-24T05:33:37;12.90;99.90
12049;DHT22;6085;49.452;8.502;2023-03-24T05:37:40;12.80;99.90
12049;DHT22;6085;49.452;8.502;2023-03-24T05:41:43;12.80;99.90
12049;DHT22;6085;49.452;8.502;2023-03-24T05:45:45;12.80;99.90
12049;DHT22;6085;49.452;8.502;2023-03-24T05:49:48;12.90;99.90
12049;DHT22;6085;49.452;8.502;2023-03-24T05:53:51;13.00;99.90
12049;DHT22;6085;49.452;8.502;2023-03-24T05:57:55;13.10;99.90
12049;DHT22;6085;49.452;8.502;2023-03-24T06:01:57;13.10;99.90
12049;DHT22;6085;49.452;8.502;2023-03-24T06:05:59;13.10;99.90
12049;DHT22;6085;49.452;8.502;2023-03-24T06:10:01;13.20;99.90
12049;DHT22;6085;49.452;8.502;2023-03-24T06:14:05;13.30;99.90
12049;DHT22;6085;49.452;8.502;2023-03-24T06:18:08;13.40;99.90
12049;DHT22;6085;49.452;8.502;2023-03-24T06:22:14;13.50;99.90
12049;DHT22;6085;49.452;8.502;2023-03-24T06:26:16;13.60;99.90
12049;DHT22;6085;49.452;8.502;2023-03-24T06:30:20;13.60;99.90
12049;DHT22;6085;49.452;8.502;2023-03-24T06:34:22;13.60;99.90
12049;DHT22;6085;49.452;8.502;2023-03-24T06:38:24;13.60;99.90
12049;DHT22;6085;49.452;8.502;2023-03-24T06:42:26;13.60;99.90
12049;DHT22;6085;49.452;8.502;2023-03-24T06:46:29;13.80;99.90
12049;DHT22;6085;49.452;8.502;2023-03-24T06:50:32;13.90;99.90
12049;DHT22;6085;49.452;8.502;2023-03-24T06:54:35;14.00;99.90
12049;DHT22;6085;49.452;8.502;2023-03-24T06:58:37;14.10;99.90
12049;DHT22;6085;49.452;8.502;2023-03-24T07:02:40;14.20;99.90
12049;DHT22;6085;49.452;8.502;2023-03-24T07:06:42;14.10;99.90
12049;DHT22;6085;49.452;8.502;2023-03-24T07:10:45;14.10;99.90
12049;DHT22;6085;49.452;8.502;2023-03-24T07:14:47;14.20;99.90
12049;DHT22;6085;49.452;8.502;2023-03-24T07:18:51;14.40;99.90
12049;DHT22;6085;49.452;8.502;2023-03-24T07:22:54;14.50;99.90
12049;DHT22;6085;49.452;8.502;2023-03-24T07:26:56;14.50;99.90
12049;DHT22;6085;49.452;8.502;2023-03-24T07:31:01;14.50;99.90
12049;DHT22;6085;49.452;8.502;2023-03-24T07:35:06;14.50;99.90
12049;DHT22;6085;49.452;8.502;2023-03-24T07:39:10;14.50;99.90
12049;DHT22;6085;49.452;8.502;2023-03-24T07:43:12;14.40;99.90
12049;DHT22;6085;49.452;8.502;2023-03-24T07:47:15;14.30;99.90
12049;DHT22;6085;49.452;8.502;2023-03-24T07:51:18;14.20;99.90
12049;DHT22;6085;49.452;8.502;2023-03-24T07:55:20;14.20;99.90
12049;DHT22;6085;49.452;8.502;2023-03-24T07:59:22;14.10;99.90
12049;DHT22;6085;49.452;8.502;2023-03-24T08:03:24;14.00;99.90
12049;DHT22;6085;49.452;8.502;2023-03-24T08:07:29;14.00;99.90
12049;DHT22;6085;49.452;8.502;2023-03-24T08:11:31;14.10;99.90
12049;DHT22;6085;49.452;8.502;2023-03-24T08:15:33;14.30;99.90
12049;DHT22;6085;49.452;8.502;2023-03-24T08:19:35;14.50;99.90
12049;DHT22;6085;49.452;8.502;2023-03-24T08:23:38;14.50;99.90
12049;DHT22;6085;49.452;8.502;2023-03-24T08:27:41;14.40;99.90
12049;DHT22;6085;49.452;8.502;2023-03-24T08:31:44;14.40;99.90
12049;DHT22;6085;49.452;8.502;2023-03-24T08:35:46;14.30;99.90
12049;DHT22;6085;49.452;8.502;2023-03-24T08:39:50;14.20;99.90
12049;DHT22;6085;49.452;8.502;2023-03-24T08:43:52;14.10;99.90
12049;DHT22;6085;49.452;8.502;2023-03-24T08:47:54;14.10;99.90
12049;DHT22;6085;49.452;8.502;2023-03-24T08:51:57;14.10;99.90
12049;DHT22;6085;49.452;8.502;2023-03-24T08:56:01;14.10;99.90
12049;DHT22;6085;49.452;8.502;2023-03-24T09:00:03;14.10;99.90
12049;DHT22;6085;49.452;8.502;2023-03-24T09:04:13;14.20;99.90
12049;DHT22;6085;49.452;8.502;2023-03-24T09:08:17;14.20;99.90
12049;DHT22;6085;49.452;8.502;2023-03-24T09:12:21;14.30;99.90
12049;DHT22;6085;49.452;8.502;2023-03-24T09:16:23;14.30;99.90
12049;DHT22;6085;49.452;8.502;2023-03-24T09:20:25;14.20;99.90
12049;DHT22;6085;49.452;8.502;2023-03-24T09:24:27;14.20;99.90
12049;DHT22;6085;49.452;8.502;2023-03-24T09:28:31;14.20;99.90
12049;DHT22;6085;49.452;8.502;2023-03-24T09:32:33;14.30;99.90
12049;DHT22;6085;49.452;8.502;2023-03-24T09:36:35;14.40;99.90
12049;DHT22;6085;49.452;8.502;2023-03-24T09:40:39;14.40;99.90
12049;DHT22;6085;49.452;8.502;2023-03-24T09:44:46;14.40;99.90
12049;DHT22;6085;49.452;8.502;2023-03-24T09:48:51;14.50;99.90
12049;DHT22;6085;49.452;8.502;2023-03-24T09:52:59;14.50;99.90
12049;DHT22;6085;49.452;8.502;2023-03-24T09:57:09;14.60;99.90
12049;DHT22;6085;49.452;8.502;2023-03-24T10:01:17;14.50;99.90
12049;DHT22;6085;49.452;8.502;2023-03-24T10:05:23;14.40;99.90
12049;DHT22;6085;49.452;8.502;2023-03-24T10:09:29;14.40;99.90
12049;DHT22;6085;49.452;8.502;2023-03-24T10:13:42;14.30;99.90
12049;DHT22;6085;49.452;8.502;2023-03-24T10:17:53;14.20;99.90
12049;DHT22;6085;49.452;8.502;2023-03-24T10:22:02;14.20;99.90
12049;DHT22;6085;49.452;8.502;2023-03-24T10:26:18;14.20;99.90
12049;DHT22;6085;49.452;8.502;2023-03-24T10:30:27;14.10;99.90
12049;DHT22;6085;49.452;8.502;2023-03-24T10:34:32;14.20;99.90
12049;DHT22;6085;49.452;8.502;2023-03-24T10:38:35;14.20;99.90
12049;DHT22;6085;49.452;8.502;2023-03-24T10:42:40;14.10;99.90
12049;DHT22;6085;49.452;8.502;2023-03-24T10:46:45;14.10;99.90
12049;DHT22;6085;49.452;8.502;2023-03-24T10:50:49;14.10;99.90
12049;DHT22;6085;49.452;8.502;2023-03-24T10:54:56;14.10;99.90
12049;DHT22;6085;49.452;8.502;2023-03-24T10:58:59;14.10;99.90
12049;DHT22;6085;49.452;8.502;2023-03-24T11:03:03;14.20;99.90
12049;DHT22;6085;49.452;8.502;2023-03-24T11:07:15;14.30;99.90
12049;DHT22;6085;49.452;8.502;2023-03-24T11:11:28;14.20;99.90
12049;DHT22;6085;49.452;8.502;2023-03-24T11:15:31;14.00;99.90
12049;DHT22;6085;49.452;8.502;2023-03-24T11:19:34;13.20;99.90
12049;DHT22;6085;49.452;8.502;2023-03-24T11:23:39;12.70;99.90
12049;DHT22;6085;49.452;8.502;2023-03-24T11:27:44;12.40;99.90
12049;DHT22;6085;49.452;8.502;2023-03-24T11:31:50;12.40;99.90
12049;DHT22;6085;49.452;8.502;2023-03-24T11:35:54;12.50;99.90
12049;DHT22;6085;49.452;8.502;2023-03-24T11:40:20;12.60;99.90
12049;DHT22;6085;49.452;8.502;2023-03-24T11:44:23;12.70;99.90
12049;DHT22;6085;49.452;8.502;2023-03-24T11:48:30;13.00;99.90
12049;DHT22;6085;49.452;8.502;2023-03-24T11:52:38;13.30;99.90
12049;DHT22;6085;49.452;8.502;2023-03-24T11:56:45;13.60;99.90
12049;DHT22;6085;49.452;8.502;2023-03-24T12:00:52;13.80;99.90
12049;DHT22;6085;49.452;8.502;2023-03-24T12:05:13;14.10;99.90
12049;DHT22;6085;49.452;8.502;2023-03-24T12:09:23;14.60;99.90
12049;DHT22;6085;49.452;8.502;2023-03-24T12:13:32;15.00;99.90
12049;DHT22;6085;49.452;8.502;2023-03-24T12:17:39;15.50;99.90
12049;DHT22;6085;49.452;8.502;2023-03-24T12:21:52;15.40;99.90
12049;DHT22;6085;49.452;8.502;2023-03-24T12:26:12;15.00;99.90
12049;DHT22;6085;49.452;8.502;2023-03-24T12:30:20;14.80;99.90
12049;DHT22;6085;49.452;8.502;2023-03-24T12:34:46;15.20;99.90
12049;DHT22;6085;49.452;8.502;2023-03-24T12:39:01;15.90;99.90
12049;DHT22;6085;49.452;8.502;2023-03-24T12:43:12;16.90;99.90
12049;DHT22;6085;49.452;8.502;2023-03-24T12:47:28;16.90;99.90
12049;DHT22;6085;49.452;8.502;2023-03-24T12:51:40;17.30;99.90
12049;DHT22;6085;49.452;8.502;2023-03-24T12:55:49;17.70;99.90
12049;DHT22;6085;49.452;8.502;2023-03-24T12:59:55;17.60;99.90
12049;DHT22;6085;49.452;8.502;2023-03-24T13:04:05;17.40;99.90
12049;DHT22;6085;49.452;8.502;2023-03-24T13:08:18;17.50;99.90
12049;DHT22;6085;49.452;8.502;2023-03-24T13:12:24;17.50;99.90
12049;DHT22;6085;49.452;8.502;2023-03-24T13:16:30;17.70;99.90
12049;DHT22;6085;49.452;8.502;2023-03-24T13:20:40;18.00;99.90
12049;DHT22;6085;49.452;8.502;2023-03-24T13:24:45;18.10;99.90
12049;DHT22;6085;49.452;8.502;2023-03-24T13:28:56;17.40;99.90
12049;DHT22;6085;49.452;8.502;2023-03-24T13:33:07;17.30;99.90
12049;DHT22;6085;49.452;8.502;2023-03-24T13:37:18;18.10;99.90
12049;DHT22;6085;49.452;8.502;2023-03-24T13:41:23;18.40;99.90
12049;DHT22;6085;49.452;8.502;2023-03-24T13:45:38;18.30;99.90
12049;DHT22;6085;49.452;8.502;2023-03-24T13:49:44;18.90;99.90
12049;DHT22;6085;49.452;8.502;2023-03-24T13:53:52;19.00;99.90
12049;DHT22;6085;49.452;8.502;2023-03-24T13:57:57;19.20;99.90
12049;DHT22;6085;49.452;8.502;2023-03-24T14:02:23;18.90;99.90
12049;DHT22;6085;49.452;8.502;2023-03-24T14:06:45;19.20;99.90
12049;DHT22;6085;49.452;8.502;2023-03-24T14:10:49;19.60;99.90
12049;DHT22;6085;49.452;8.502;2023-03-24T14:15:14;19.40;99.90
12049;DHT22;6085;49.452;8.502;2023-03-24T14:19:23;18.60;99.90
12049;DHT22;6085;49.452;8.502;2023-03-24T14:23:35;18.30;99.90
12049;DHT22;6085;49.452;8.502;2023-03-24T14:27:40;17.80;99.90
12049;DHT22;6085;49.452;8.502;2023-03-24T14:31:49;17.90;99.90
12049;DHT22;6085;49.452;8.502;2023-03-24T14:35:57;18.20;99.90
12049;DHT22;6085;49.452;8.502;2023-03-24T14:40:02;18.40;99.90
12049;DHT22;6085;49.452;8.502;2023-03-24T14:44:07;18.10;99.90
12049;DHT22;6085;49.452;8.502;2023-03-24T14:48:33;17.50;99.90
12049;DHT22;6085;49.452;8.502;2023-03-24T14:52:40;17.20;99.90
12049;DHT22;6085;49.452;8.502;2023-03-24T14:56:46;17.10;99.90
12049;DHT22;6085;49.452;8.502;2023-03-24T15:00:54;16.90;99.90
12049;DHT22;6085;49.452;8.502;2023-03-24T15:05:19;16.90;99.90
12049;DHT22;6085;49.452;8.502;2023-03-24T15:09:22;17.10;99.90
12049;DHT22;6085;49.452;8.502;2023-03-24T15:13:32;17.00;99.90
12049;DHT22;6085;49.452;8.502;2023-03-24T15:17:36;17.00;99.90
12049;DHT22;6085;49.452;8.502;2023-03-24T15:21:39;17.00;99.90
12049;DHT22;6085;49.452;8.502;2023-03-24T15:25:41;17.00;99.90
12049;DHT22;6085;49.452;8.502;2023-03-24T15:29:44;17.10;99.90
12049;DHT22;6085;49.452;8.502;2023-03-24T15:33:47;17.40;99.90
12049;DHT22;6085;49.452;8.502;2023-03-24T15:37:50;17.90;99.90
12049;DHT22;6085;49.452;8.502;2023-03-24T15:41:53;18.20;99.90
12049;DHT22;6085;49.452;8.502;2023-03-24T15:45:57;18.00;99.90
12049;DHT22;6085;49.452;8.502;2023-03-24T15:50:04;17.70;99.90
12049;DHT22;6085;49.452;8.502;2023-03-24T15:54:21;17.50;99.90
12049;DHT22;6085;49.452;8.502;2023-03-24T15:58:25;17.60;99.90
12049;DHT22;6085;49.452;8.502;2023-03-24T16:02:30;17.40;99.90
12049;DHT22;6085;49.452;8.502;2023-03-24T16:06:35;17.40;99.90
12049;DHT22;6085;49.452;8.502;2023-03-24T16:10:40;17.60;99.90
12049;DHT22;6085;49.452;8.502;2023-03-24T16:14:43;17.80;99.90
12049;DHT22;6085;49.452;8.502;2023-03-24T16:18:47;17.70;99.90
12049;DHT22;6085;49.452;8.502;2023-03-24T16:22:51;17.40;99.90
12049;DHT22;6085;49.452;8.502;2023-03-24T16:26:53;17.20;99.90
12049;DHT22;6085;49.452;8.502;2023-03-24T16:30:58;16.80;99.90
12049;DHT22;6085;49.452;8.502;2023-03-24T16:35:01;16.50;99.90
12049;DHT22;6085;49.452;8.502;2023-03-24T16:39:13;16.30;99.90
12049;DHT22;6085;49.452;8.502;2023-03-24T16:43:16;16.10;99.90
12049;DHT22;6085;49.452;8.502;2023-03-24T16:47:23;16.00;99.90
12049;DHT22;6085;49.452;8.502;2023-03-24T16:51:25;15.90;99.90
12049;DHT22;6085;49.452;8.502;2023-03-24T16:55:28;15.90;99.90
12049;DHT22;6085;49.452;8.502;2023-03-24T16:59:30;15.80;99.90
12049;DHT22;6085;49.452;8.502;2023-03-24T17:03:32;15.70;99.90
12049;DHT22;6085;49.452;8.502;2023-03-24T17:07:34;15.70;99.90
12049;DHT22;6085;49.452;8.502;2023-03-24T17:11:39;15.50;99.90
12049;DHT22;6085;49.452;8.502;2023-03-24T17:15:42;15.30;99.90
12049;DHT22;6085;49.452;8.502;2023-03-24T17:19:44;15.20;99.90
12049;DHT22;6085;49.452;8.502;2023-03-24T17:23:47;15.10;99.90
12049;DHT22;6085;49.452;8.502;2023-03-24T17:27:55;14.90;99.90
12049;DHT22;6085;49.452;8.502;2023-03-24T17:31:57;15.00;99.90
12049;DHT22;6085;49.452;8.502;2023-03-24T17:35:59;15.10;99.90
12049;DHT22;6085;49.452;8.502;2023-03-24T17:40:01;15.00;99.90
12049;DHT22;6085;49.452;8.502;2023-03-24T17:44:08;14.90;99.90
12049;DHT22;6085;49.452;8.502;2023-03-24T17:48:11;14.80;99.90
12049;DHT22;6085;49.452;8.502;2023-03-24T17:52:12;14.60;99.90
12049;DHT22;6085;49.452;8.502;2023-03-24T17:56:15;14.60;99.90
12049;DHT22;6085;49.452;8.502;2023-03-24T18:00:18;14.60;99.90
12049;DHT22;6085;49.452;8.502;2023-03-24T18:04:20;14.40;99.90
12049;DHT22;6085;49.452;8.502;2023-03-24T18:08:23;14.20;99.90
12049;DHT22;6085;49.452;8.502;2023-03-24T18:12:25;14.10;99.90
12049;DHT22;6085;49.452;8.502;2023-03-24T18:16:29;14.00;99.90
12049;DHT22;6085;49.452;8.502;2023-03-24T18:20:31;13.80;99.90
12049;DHT22;6085;49.452;8.502;2023-03-24T18:24:33;13.60;99.90
12049;DHT22;6085;49.452;8.502;2023-03-24T18:28:36;13.20;99.90
12049;DHT22;6085;49.452;8.502;2023-03-24T18:32:39;13.10;99.90
12049;DHT22;6085;49.452;8.502;2023-03-24T18:36:42;13.00;99.90
12049;DHT22;6085;49.452;8.502;2023-03-24T18:40:45;12.90;99.90
12049;DHT22;6085;49.452;8.502;2023-03-24T18:44:52;13.00;99.90
12049;DHT22;6085;49.452;8.502;2023-03-24T18:48:58;12.90;99.90
12049;DHT22;6085;49.452;8.502;2023-03-24T18:53:01;12.80;99.90
12049;DHT22;6085;49.452;8.502;2023-03-24T18:57:02;12.70;99.90
12049;DHT22;6085;49.452;8.502;2023-03-24T19:01:06;12.60;99.90
12049;DHT22;6085;49.452;8.502;2023-03-24T19:05:11;12.50;99.90
12049;DHT22;6085;49.452;8.502;2023-03-24T19:09:13;12.50;99.90
12049;DHT22;6085;49.452;8.502;2023-03-24T19:13:19;12.50;99.90
12049;DHT22;6085;49.452;8.502;2023-03-24T19:17:21;12.50;99.90
12049;DHT22;6085;49.452;8.502;2023-03-24T19:21:25;12.70;99.90
12049;DHT22;6085;49.452;8.502;2023-03-24T19:25:27;12.80;99.90
12049;DHT22;6085;49.452;8.502;2023-03-24T19:29:29;12.80;99.90
12049;DHT22;6085;49.452;8.502;2023-03-24T19:33:31;12.90;99.90
12049;DHT22;6085;49.452;8.502;2023-03-24T19:37:35;13.00;99.90
12049;DHT22;6085;49.452;8.502;2023-03-24T19:41:37;12.90;99.90
12049;DHT22;6085;49.452;8.502;2023-03-24T19:45:39;12.90;99.90
12049;DHT22;6085;49.452;8.502;2023-03-24T19:49:42;13.00;99.90
12049;DHT22;6085;49.452;8.502;2023-03-24T19:53:46;12.90;99.90
12049;DHT22;6085;49.452;8.502;2023-03-24T19:57:48;12.80;99.90
12049;DHT22;6085;49.452;8.502;2023-03-24T20:01:50;12.50;99.90
12049;DHT22;6085;49.452;8.502;2023-03-24T20:05:52;12.30;99.90
12049;DHT22;6085;49.452;8.502;2023-03-24T20:09:55;12.10;99.90
12049;DHT22;6085;49.452;8.502;2023-03-24T20:13:57;11.70;99.90
12049;DHT22;6085;49.452;8.502;2023-03-24T20:17:59;11.20;99.90
12049;DHT22;6085;49.452;8.502;2023-03-24T20:22:01;10.80;99.90
12049;DHT22;6085;49.452;8.502;2023-03-24T20:26:04;10.50;99.90
12049;DHT22;6085;49.452;8.502;2023-03-24T20:30:07;10.30;99.90
12049;DHT22;6085;49.452;8.502;2023-03-24T20:34:09;10.30;99.90
12049;DHT22;6085;49.452;8.502;2023-03-24T20:38:11;10.30;99.90
12049;DHT22;6085;49.452;8.502;2023-03-24T20:42:15;10.30;99.90
12049;DHT22;6085;49.452;8.502;2023-03-24T20:46:18;10.50;99.90
12049;DHT22;6085;49.452;8.502;2023-03-24T20:50:20;10.70;99.90
12049;DHT22;6085;49.452;8.502;2023-03-24T20:54:22;10.70;99.90
12049;DHT22;6085;49.452;8.502;2023-03-24T20:58:25;10.70;99.90
12049;DHT22;6085;49.452;8.502;2023-03-24T21:02:28;10.70;99.90
12049;DHT22;6085;49.452;8.502;2023-03-24T21:06:31;10.70;99.90
12049;DHT22;6085;49.452;8.502;2023-03-24T21:10:33;10.70;99.90
12049;DHT22;6085;49.452;8.502;2023-03-24T21:14:37;10.80;99.90
12049;DHT22;6085;49.452;8.502;2023-03-24T21:18:41;10.60;99.90
12049;DHT22;6085;49.452;8.502;2023-03-24T21:22:45;10.40;99.90
12049;DHT22;6085;49.452;8.502;2023-03-24T21:26:54;10.20;99.90
12049;DHT22;6085;49.452;8.502;2023-03-24T21:30:59;9.80;99.90
12049;DHT22;6085;49.452;8.502;2023-03-24T21:35:07;9.50;99.90
12049;DHT22;6085;49.452;8.502;2023-03-24T21:39:10;9.40;99.90
12049;DHT22;6085;49.452;8.502;2023-03-24T21:43:13;9.40;99.90
12049;DHT22;6085;49.452;8.502;2023-03-24T21:47:17;9.50;99.90
12049;DHT22;6085;49.452;8.502;2023-03-24T21:51:21;9.40;99.90
12049;DHT22;6085;49.452;8.502;2023-03-24T21:55:24;9.20;99.90
12049;DHT22;6085;49.452;8.502;2023-03-24T21:59:26;9.10;99.90
12049;DHT22;6085;49.452;8.502;2023-03-24T22:03:30;8.90;99.90
12049;DHT22;6085;49.452;8.502;2023-03-24T22:07:33;8.90;99.90
12049;DHT22;6085;49.452;8.502;2023-03-24T22:11:37;8.80;99.90
12049;DHT22;6085;49.452;8.502;2023-03-24T22:15:42;8.70;99.90
12049;DHT22;6085;49.452;8.502;2023-03-24T22:19:45;8.80;99.90
12049;DHT22;6085;49.452;8.502;2023-03-24T22:23:47;9.00;99.90
12049;DHT22;6085;49.452;8.502;2023-03-24T22:27:49;9.30;99.90
12049;DHT22;6085;49.452;8.502;2023-03-24T22:31:52;9.50;99.90
12049;DHT22;6085;49.452;8.502;2023-03-24T22:35:56;9.60;99.90
12049;DHT22;6085;49.452;8.502;2023-03-24T22:39:58;9.60;99.90
12049;DHT22;6085;49.452;8.502;2023-03-24T22:44:00;9.70;99.90
12049;DHT22;6085;49.452;8.502;2023-03-24T22:48:02;9.80;99.90
12049;DHT22;6085;49.452;8.502;2023-03-24T22:52:06;9.90;99.90
12049;DHT22;6085;49.452;8.502;2023-03-24T22:56:08;10.00;99.90
12049;DHT22;6085;49.452;8.502;2023-03-24T23:00:11;10.10;99.90
12049;DHT22;6085;49.452;8.502;2023-03-24T23:04:14;10.10;99.90
12049;DHT22;6085;49.452;8.502;2023-03-24T23:08:17;10.20;99.90
12049;DHT22;6085;49.452;8.502;2023-03-24T23:12:19;10.30;99.90
12049;DHT22;6085;49.452;8.502;2023-03-24T23:16:21;10.30;99.90
12049;DHT22;6085;49.452;8.502;2023-03-24T23:20:23;10.30;99.90
12049;DHT22;6085;49.452;8.502;2023-03-24T23:24:27;10.20;99.90
12049;DHT22;6085;49.452;8.502;2023-03-24T23:28:30;10.20;99.90
12049;DHT22;6085;49.452;8.502;2023-03-24T23:32:33;10.20;99.90
12049;DHT22;6085;49.452;8.502;2023-03-24T23:36:36;10.30;99.90
12049;DHT22;6085;49.452;8.502;2023-03-24T23:40:40;10.20;99.90
12049;DHT22;6085;49.452;8.502;2023-03-24T23:44:42;10.00;99.90
12049;DHT22;6085;49.452;8.502;2023-03-24T23:48:44;10.00;99.90
12049;DHT22;6085;49.452;8.502;2023-03-24T23:52:46;10.00;99.90
12049;DHT22;6085;49.452;8.502;2023-03-24T23:56:50;9.90;99.90
